sensor_id;sensor_type;location;lat;lon;timestamp;P1;durP1;ratioP1;P2;durP2;ratioP2
4317;SDS011;2172;53.576;9.934;2022-07-21T00:00:11;21.20;;;18.90;;
4317;SDS011;2172;53.576;9.934;2022-07-21T00:02:40;20.57;;;17.60;;
4317;SDS011;2172;53.576;9.934;2022-07-21T00:05:08;24.13;;;18.17;;
4317;SDS011;2172;53.576;9.934;2022-07-21T00:07:35;24.90;;;19.80;;
4317;SDS011;2172;53.576;9.934;2022-07-21T00:10:03;20.43;;;17.87;;
4317;SDS011;2172;53.576;9.934;2022-07-21T00:12:33;24.93;;;19.50;;
4317;SDS011;2172;53.576;9.934;2022-07-21T00:15:02;20.83;;;17.63;;
4317;SDS011;2172;53.576;9.934;2022-07-21T00:17:30;23.90;;;19.03;;
4317;SDS011;2172;53.576;9.934;2022-07-21T00:19:57;25.30;;;18.90;;
4317;SDS011;2172;53.576;9.934;2022-07-21T00:22:25;23.27;;;18.67;;
4317;SDS011;2172;53.576;9.934;2022-07-21T00:24:53;20.30;;;17.30;;
4317;SDS011;2172;53.576;9.934;2022-07-21T00:27:21;20.60;;;18.47;;
4317;SDS011;2172;53.576;9.934;2022-07-21T00:29:49;20.90;;;17.80;;
4317;SDS011;2172;53.576;9.934;2022-07-21T00:32:17;22.70;;;18.90;;
4317;SDS011;2172;53.576;9.934;2022-07-21T00:34:44;21.30;;;19.03;;
4317;SDS011;2172;53.576;9.934;2022-07-21T00:37:12;19.70;;;17.77;;
4317;SDS011;2172;53.576;9.934;2022-07-21T00:39:39;23.00;;;18.00;;
4317;SDS011;2172;53.576;9.934;2022-07-21T00:42:07;20.17;;;17.07;;
4317;SDS011;2172;53.576;9.934;2022-07-21T00:44:36;19.63;;;17.40;;
4317;SDS011;2172;53.576;9.934;2022-07-21T00:47:04;23.13;;;17.83;;
4317;SDS011;2172;53.576;9.934;2022-07-21T00:49:31;20.27;;;18.20;;
4317;SDS011;2172;53.576;9.934;2022-07-21T00:51:59;22.80;;;18.43;;
4317;SDS011;2172;53.576;9.934;2022-07-21T00:54:27;18.77;;;16.60;;
4317;SDS011;2172;53.576;9.934;2022-07-21T00:56:54;22.73;;;17.60;;
4317;SDS011;2172;53.576;9.934;2022-07-21T00:59:22;19.60;;;17.53;;
4317;SDS011;2172;53.576;9.934;2022-07-21T01:01:51;20.33;;;18.13;;
4317;SDS011;2172;53.576;9.934;2022-07-21T01:04:19;19.23;;;17.13;;
4317;SDS011;2172;53.576;9.934;2022-07-21T01:06:46;18.90;;;17.00;;
4317;SDS011;2172;53.576;9.934;2022-07-21T01:09:14;25.10;;;18.00;;
4317;SDS011;2172;53.576;9.934;2022-07-21T01:11:41;20.80;;;17.53;;
4317;SDS011;2172;53.576;9.934;2022-07-21T01:14:10;20.00;;;17.90;;
4317;SDS011;2172;53.576;9.934;2022-07-21T01:16:38;19.40;;;16.47;;
4317;SDS011;2172;53.576;9.934;2022-07-21T01:19:07;24.93;;;18.00;;
4317;SDS011;2172;53.576;9.934;2022-07-21T01:21:37;18.27;;;16.37;;
4317;SDS011;2172;53.576;9.934;2022-07-21T01:24:06;22.93;;;17.63;;
4317;SDS011;2172;53.576;9.934;2022-07-21T01:26:39;19.40;;;17.50;;
4317;SDS011;2172;53.576;9.934;2022-07-21T01:29:07;21.40;;;19.20;;
4317;SDS011;2172;53.576;9.934;2022-07-21T01:31:36;21.67;;;18.60;;
4317;SDS011;2172;53.576;9.934;2022-07-21T01:34:06;20.80;;;17.70;;
4317;SDS011;2172;53.576;9.934;2022-07-21T01:36:35;25.07;;;19.77;;
4317;SDS011;2172;53.576;9.934;2022-07-21T01:39:04;22.13;;;19.10;;
4317;SDS011;2172;53.576;9.934;2022-07-21T01:41:50;21.47;;;19.20;;
4317;SDS011;2172;53.576;9.934;2022-07-21T01:44:18;20.80;;;18.67;;
4317;SDS011;2172;53.576;9.934;2022-07-21T01:46:46;24.00;;;18.57;;
4317;SDS011;2172;53.576;9.934;2022-07-21T01:49:16;26.17;;;18.40;;
4317;SDS011;2172;53.576;9.934;2022-07-21T01:51:46;20.70;;;18.17;;
4317;SDS011;2172;53.576;9.934;2022-07-21T01:54:14;21.37;;;18.87;;
4317;SDS011;2172;53.576;9.934;2022-07-21T01:56:42;20.27;;;18.13;;
4317;SDS011;2172;53.576;9.934;2022-07-21T01:59:10;22.37;;;18.73;;
4317;SDS011;2172;53.576;9.934;2022-07-21T02:01:37;22.33;;;19.30;;
4317;SDS011;2172;53.576;9.934;2022-07-21T02:04:07;22.90;;;18.70;;
4317;SDS011;2172;53.576;9.934;2022-07-21T02:06:35;23.30;;;19.57;;
4317;SDS011;2172;53.576;9.934;2022-07-21T02:09:04;27.13;;;20.80;;
4317;SDS011;2172;53.576;9.934;2022-07-21T02:11:33;23.00;;;19.53;;
4317;SDS011;2172;53.576;9.934;2022-07-21T02:14:01;27.37;;;20.87;;
4317;SDS011;2172;53.576;9.934;2022-07-21T02:16:29;24.80;;;20.73;;
4317;SDS011;2172;53.576;9.934;2022-07-21T02:18:56;29.03;;;20.50;;
4317;SDS011;2172;53.576;9.934;2022-07-21T02:21:24;24.50;;;20.30;;
4317;SDS011;2172;53.576;9.934;2022-07-21T02:23:52;22.30;;;19.23;;
4317;SDS011;2172;53.576;9.934;2022-07-21T02:26:21;21.87;;;18.83;;
4317;SDS011;2172;53.576;9.934;2022-07-21T02:28:49;31.10;;;21.00;;
4317;SDS011;2172;53.576;9.934;2022-07-21T02:31:17;27.43;;;21.07;;
4317;SDS011;2172;53.576;9.934;2022-07-21T02:33:44;26.27;;;20.77;;
4317;SDS011;2172;53.576;9.934;2022-07-21T02:36:12;25.00;;;21.43;;
4317;SDS011;2172;53.576;9.934;2022-07-21T02:38:39;24.53;;;21.80;;
4317;SDS011;2172;53.576;9.934;2022-07-21T02:41:07;26.87;;;23.10;;
4317;SDS011;2172;53.576;9.934;2022-07-21T02:43:36;32.60;;;24.10;;
4317;SDS011;2172;53.576;9.934;2022-07-21T02:46:04;26.13;;;22.97;;
4317;SDS011;2172;53.576;9.934;2022-07-21T02:48:31;27.07;;;21.97;;
4317;SDS011;2172;53.576;9.934;2022-07-21T02:50:59;26.63;;;21.77;;
4317;SDS011;2172;53.576;9.934;2022-07-21T02:53:26;29.73;;;21.37;;
4317;SDS011;2172;53.576;9.934;2022-07-21T02:55:54;24.27;;;20.40;;
4317;SDS011;2172;53.576;9.934;2022-07-21T02:58:23;31.77;;;19.90;;
4317;SDS011;2172;53.576;9.934;2022-07-21T03:00:54;24.60;;;20.67;;
4317;SDS011;2172;53.576;9.934;2022-07-21T03:03:23;25.20;;;18.77;;
4317;SDS011;2172;53.576;9.934;2022-07-21T03:05:52;21.20;;;18.10;;
4317;SDS011;2172;53.576;9.934;2022-07-21T03:08:20;24.17;;;19.43;;
4317;SDS011;2172;53.576;9.934;2022-07-21T03:10:48;25.50;;;18.00;;
4317;SDS011;2172;53.576;9.934;2022-07-21T03:13:16;23.93;;;18.27;;
4317;SDS011;2172;53.576;9.934;2022-07-21T03:15:43;20.57;;;16.47;;
4317;SDS011;2172;53.576;9.934;2022-07-21T03:18:12;26.10;;;17.20;;
4317;SDS011;2172;53.576;9.934;2022-07-21T03:20:41;29.43;;;17.00;;
4317;SDS011;2172;53.576;9.934;2022-07-21T03:23:09;22.40;;;16.67;;
4317;SDS011;2172;53.576;9.934;2022-07-21T03:25:37;19.93;;;15.07;;
4317;SDS011;2172;53.576;9.934;2022-07-21T03:28:04;22.43;;;15.30;;
4317;SDS011;2172;53.576;9.934;2022-07-21T03:30:33;18.23;;;14.97;;
4317;SDS011;2172;53.576;9.934;2022-07-21T03:33:01;21.83;;;15.13;;
4317;SDS011;2172;53.576;9.934;2022-07-21T03:35:30;22.57;;;14.87;;
4317;SDS011;2172;53.576;9.934;2022-07-21T03:37:58;21.07;;;14.77;;
4317;SDS011;2172;53.576;9.934;2022-07-21T03:40:27;21.00;;;14.90;;
4317;SDS011;2172;53.576;9.934;2022-07-21T03:42:56;23.27;;;13.70;;
4317;SDS011;2172;53.576;9.934;2022-07-21T03:45:26;17.97;;;11.70;;
4317;SDS011;2172;53.576;9.934;2022-07-21T03:47:55;18.83;;;12.60;;
4317;SDS011;2172;53.576;9.934;2022-07-21T03:50:23;25.27;;;13.47;;
4317;SDS011;2172;53.576;9.934;2022-07-21T03:52:52;18.23;;;11.97;;
4317;SDS011;2172;53.576;9.934;2022-07-21T03:55:20;20.60;;;11.33;;
4317;SDS011;2172;53.576;9.934;2022-07-21T03:57:49;24.97;;;12.30;;
4317;SDS011;2172;53.576;9.934;2022-07-21T04:00:18;20.23;;;11.97;;
4317;SDS011;2172;53.576;9.934;2022-07-21T04:02:47;16.47;;;10.80;;
4317;SDS011;2172;53.576;9.934;2022-07-21T04:05:16;16.63;;;10.73;;
4317;SDS011;2172;53.576;9.934;2022-07-21T04:07:44;16.23;;;10.97;;
4317;SDS011;2172;53.576;9.934;2022-07-21T04:10:15;25.23;;;12.17;;
4317;SDS011;2172;53.576;9.934;2022-07-21T04:12:44;20.67;;;11.17;;
4317;SDS011;2172;53.576;9.934;2022-07-21T04:15:12;23.57;;;13.60;;
4317;SDS011;2172;53.576;9.934;2022-07-21T04:17:40;23.33;;;13.53;;
4317;SDS011;2172;53.576;9.934;2022-07-21T04:20:08;26.03;;;12.50;;
4317;SDS011;2172;53.576;9.934;2022-07-21T04:22:37;21.17;;;12.60;;
4317;SDS011;2172;53.576;9.934;2022-07-21T04:25:05;20.77;;;12.00;;
4317;SDS011;2172;53.576;9.934;2022-07-21T04:27:35;24.83;;;13.40;;
4317;SDS011;2172;53.576;9.934;2022-07-21T04:30:04;27.47;;;12.97;;
4317;SDS011;2172;53.576;9.934;2022-07-21T04:32:33;23.93;;;14.30;;
4317;SDS011;2172;53.576;9.934;2022-07-21T04:35:00;23.83;;;13.77;;
4317;SDS011;2172;53.576;9.934;2022-07-21T04:37:28;22.47;;;13.20;;
4317;SDS011;2172;53.576;9.934;2022-07-21T04:39:56;19.80;;;11.23;;
4317;SDS011;2172;53.576;9.934;2022-07-21T04:42:24;21.23;;;11.90;;
4317;SDS011;2172;53.576;9.934;2022-07-21T04:44:52;20.07;;;11.40;;
4317;SDS011;2172;53.576;9.934;2022-07-21T04:47:20;17.13;;;11.50;;
4317;SDS011;2172;53.576;9.934;2022-07-21T04:49:48;20.13;;;11.40;;
4317;SDS011;2172;53.576;9.934;2022-07-21T04:52:15;20.20;;;12.10;;
4317;SDS011;2172;53.576;9.934;2022-07-21T04:54:43;18.93;;;11.00;;
4317;SDS011;2172;53.576;9.934;2022-07-21T04:57:10;20.30;;;11.73;;
4317;SDS011;2172;53.576;9.934;2022-07-21T04:59:38;20.93;;;11.17;;
4317;SDS011;2172;53.576;9.934;2022-07-21T05:02:07;18.63;;;10.17;;
4317;SDS011;2172;53.576;9.934;2022-07-21T05:04:35;18.47;;;11.90;;
4317;SDS011;2172;53.576;9.934;2022-07-21T05:07:02;18.23;;;11.03;;
4317;SDS011;2172;53.576;9.934;2022-07-21T05:09:30;14.77;;;11.27;;
4317;SDS011;2172;53.576;9.934;2022-07-21T05:11:57;18.27;;;10.10;;
4317;SDS011;2172;53.576;9.934;2022-07-21T05:14:25;16.93;;;10.30;;
4317;SDS011;2172;53.576;9.934;2022-07-21T05:16:52;13.30;;;9.70;;
4317;SDS011;2172;53.576;9.934;2022-07-21T05:19:21;17.00;;;9.70;;
4317;SDS011;2172;53.576;9.934;2022-07-21T05:21:49;13.73;;;10.17;;
4317;SDS011;2172;53.576;9.934;2022-07-21T05:24:16;17.00;;;9.93;;
4317;SDS011;2172;53.576;9.934;2022-07-21T05:26:44;15.30;;;9.33;;
4317;SDS011;2172;53.576;9.934;2022-07-21T05:29:11;18.67;;;9.40;;
4317;SDS011;2172;53.576;9.934;2022-07-21T05:31:39;14.13;;;10.00;;
4317;SDS011;2172;53.576;9.934;2022-07-21T05:34:06;15.30;;;10.20;;
4317;SDS011;2172;53.576;9.934;2022-07-21T05:36:35;13.70;;;9.40;;
4317;SDS011;2172;53.576;9.934;2022-07-21T05:39:02;16.70;;;10.60;;
4317;SDS011;2172;53.576;9.934;2022-07-21T05:41:30;20.40;;;9.97;;
4317;SDS011;2172;53.576;9.934;2022-07-21T05:43:57;15.27;;;9.70;;
4317;SDS011;2172;53.576;9.934;2022-07-21T05:46:25;16.57;;;10.37;;
4317;SDS011;2172;53.576;9.934;2022-07-21T05:48:53;17.60;;;10.50;;
4317;SDS011;2172;53.576;9.934;2022-07-21T05:51:20;15.37;;;10.10;;
4317;SDS011;2172;53.576;9.934;2022-07-21T05:53:49;18.03;;;10.30;;
4317;SDS011;2172;53.576;9.934;2022-07-21T05:56:17;19.80;;;11.03;;
4317;SDS011;2172;53.576;9.934;2022-07-21T05:58:44;19.23;;;10.70;;
4317;SDS011;2172;53.576;9.934;2022-07-21T06:01:12;14.40;;;10.00;;
4317;SDS011;2172;53.576;9.934;2022-07-21T06:03:42;20.20;;;11.50;;
4317;SDS011;2172;53.576;9.934;2022-07-21T06:06:11;24.17;;;10.77;;
4317;SDS011;2172;53.576;9.934;2022-07-21T06:08:41;15.47;;;10.40;;
4317;SDS011;2172;53.576;9.934;2022-07-21T06:11:10;15.00;;;9.10;;
4317;SDS011;2172;53.576;9.934;2022-07-21T06:13:39;14.50;;;10.93;;
4317;SDS011;2172;53.576;9.934;2022-07-21T06:16:07;17.63;;;10.97;;
4317;SDS011;2172;53.576;9.934;2022-07-21T06:18:35;17.97;;;10.90;;
4317;SDS011;2172;53.576;9.934;2022-07-21T06:21:03;13.80;;;11.53;;
4317;SDS011;2172;53.576;9.934;2022-07-21T06:23:31;13.63;;;11.30;;
4317;SDS011;2172;53.576;9.934;2022-07-21T06:25:58;13.53;;;11.80;;
4317;SDS011;2172;53.576;9.934;2022-07-21T06:28:27;19.07;;;11.33;;
4317;SDS011;2172;53.576;9.934;2022-07-21T06:30:55;20.50;;;12.73;;
4317;SDS011;2172;53.576;9.934;2022-07-21T06:33:22;14.43;;;11.87;;
4317;SDS011;2172;53.576;9.934;2022-07-21T06:35:50;14.83;;;12.07;;
4317;SDS011;2172;53.576;9.934;2022-07-21T06:38:18;18.40;;;12.10;;
4317;SDS011;2172;53.576;9.934;2022-07-21T06:40:45;20.37;;;12.87;;
4317;SDS011;2172;53.576;9.934;2022-07-21T06:43:13;17.37;;;12.70;;
4317;SDS011;2172;53.576;9.934;2022-07-21T06:45:42;21.70;;;12.27;;
4317;SDS011;2172;53.576;9.934;2022-07-21T06:48:09;19.67;;;12.23;;
4317;SDS011;2172;53.576;9.934;2022-07-21T06:50:37;18.57;;;12.87;;
4317;SDS011;2172;53.576;9.934;2022-07-21T06:53:05;20.13;;;12.93;;
4317;SDS011;2172;53.576;9.934;2022-07-21T06:55:33;21.50;;;13.40;;
4317;SDS011;2172;53.576;9.934;2022-07-21T06:58:11;20.60;;;12.93;;
4317;SDS011;2172;53.576;9.934;2022-07-21T07:00:42;23.27;;;13.07;;
4317;SDS011;2172;53.576;9.934;2022-07-21T07:03:10;22.23;;;14.13;;
4317;SDS011;2172;53.576;9.934;2022-07-21T07:05:38;19.83;;;13.60;;
4317;SDS011;2172;53.576;9.934;2022-07-21T07:08:08;19.40;;;14.07;;
4317;SDS011;2172;53.576;9.934;2022-07-21T07:10:35;20.53;;;14.17;;
4317;SDS011;2172;53.576;9.934;2022-07-21T07:13:03;21.70;;;13.70;;
4317;SDS011;2172;53.576;9.934;2022-07-21T07:15:31;22.93;;;13.53;;
4317;SDS011;2172;53.576;9.934;2022-07-21T07:18:00;22.73;;;15.00;;
4317;SDS011;2172;53.576;9.934;2022-07-21T07:20:27;21.20;;;16.10;;
4317;SDS011;2172;53.576;9.934;2022-07-21T07:22:55;24.70;;;16.43;;
4317;SDS011;2172;53.576;9.934;2022-07-21T07:25:22;18.30;;;15.37;;
4317;SDS011;2172;53.576;9.934;2022-07-21T07:27:50;21.87;;;14.77;;
4317;SDS011;2172;53.576;9.934;2022-07-21T07:30:19;22.23;;;14.57;;
4317;SDS011;2172;53.576;9.934;2022-07-21T07:32:47;24.77;;;16.47;;
4317;SDS011;2172;53.576;9.934;2022-07-21T07:35:16;22.57;;;15.70;;
4317;SDS011;2172;53.576;9.934;2022-07-21T07:37:44;25.67;;;16.77;;
4317;SDS011;2172;53.576;9.934;2022-07-21T07:40:12;23.83;;;16.60;;
4317;SDS011;2172;53.576;9.934;2022-07-21T07:42:42;25.67;;;16.33;;
4317;SDS011;2172;53.576;9.934;2022-07-21T07:45:09;25.03;;;18.20;;
4317;SDS011;2172;53.576;9.934;2022-07-21T07:47:37;25.03;;;17.40;;
4317;SDS011;2172;53.576;9.934;2022-07-21T07:50:06;29.27;;;19.23;;
4317;SDS011;2172;53.576;9.934;2022-07-21T07:52:36;24.00;;;20.77;;
4317;SDS011;2172;53.576;9.934;2022-07-21T07:55:04;26.37;;;19.13;;
4317;SDS011;2172;53.576;9.934;2022-07-21T07:57:35;30.70;;;22.87;;
4317;SDS011;2172;53.576;9.934;2022-07-21T08:00:04;27.57;;;21.90;;
4317;SDS011;2172;53.576;9.934;2022-07-21T08:02:37;28.00;;;21.10;;
4317;SDS011;2172;53.576;9.934;2022-07-21T08:05:05;29.57;;;22.73;;
4317;SDS011;2172;53.576;9.934;2022-07-21T08:07:34;30.87;;;23.60;;
4317;SDS011;2172;53.576;9.934;2022-07-21T08:10:09;28.47;;;22.60;;
4317;SDS011;2172;53.576;9.934;2022-07-21T08:12:38;27.87;;;23.50;;
4317;SDS011;2172;53.576;9.934;2022-07-21T08:15:06;29.53;;;24.97;;
4317;SDS011;2172;53.576;9.934;2022-07-21T08:17:34;26.60;;;22.07;;
4317;SDS011;2172;53.576;9.934;2022-07-21T08:20:02;30.27;;;26.50;;
4317;SDS011;2172;53.576;9.934;2022-07-21T08:22:31;30.50;;;24.50;;
4317;SDS011;2172;53.576;9.934;2022-07-21T08:25:00;32.50;;;25.40;;
4317;SDS011;2172;53.576;9.934;2022-07-21T08:27:27;32.70;;;23.30;;
4317;SDS011;2172;53.576;9.934;2022-07-21T08:29:55;31.83;;;24.60;;
4317;SDS011;2172;53.576;9.934;2022-07-21T08:32:22;28.43;;;25.40;;
4317;SDS011;2172;53.576;9.934;2022-07-21T08:34:50;29.80;;;24.00;;
4317;SDS011;2172;53.576;9.934;2022-07-21T08:37:18;32.90;;;24.30;;
4317;SDS011;2172;53.576;9.934;2022-07-21T08:39:46;28.40;;;22.87;;
4317;SDS011;2172;53.576;9.934;2022-07-21T08:42:15;30.30;;;25.33;;
4317;SDS011;2172;53.576;9.934;2022-07-21T08:44:43;30.57;;;24.17;;
4317;SDS011;2172;53.576;9.934;2022-07-21T08:47:10;34.17;;;27.20;;
4317;SDS011;2172;53.576;9.934;2022-07-21T08:49:37;31.77;;;25.10;;
4317;SDS011;2172;53.576;9.934;2022-07-21T08:52:06;33.00;;;25.13;;
4317;SDS011;2172;53.576;9.934;2022-07-21T08:54:34;28.50;;;24.50;;
4317;SDS011;2172;53.576;9.934;2022-07-21T08:57:01;31.80;;;26.13;;
4317;SDS011;2172;53.576;9.934;2022-07-21T08:59:30;30.13;;;26.23;;
4317;SDS011;2172;53.576;9.934;2022-07-21T09:01:59;28.10;;;23.87;;
4317;SDS011;2172;53.576;9.934;2022-07-21T09:04:28;32.80;;;25.87;;
4317;SDS011;2172;53.576;9.934;2022-07-21T09:06:57;33.30;;;24.30;;
4317;SDS011;2172;53.576;9.934;2022-07-21T09:09:25;25.73;;;22.93;;
4317;SDS011;2172;53.576;9.934;2022-07-21T09:11:53;28.87;;;25.77;;
4317;SDS011;2172;53.576;9.934;2022-07-21T09:14:22;27.50;;;23.53;;
4317;SDS011;2172;53.576;9.934;2022-07-21T09:16:52;27.53;;;22.73;;
4317;SDS011;2172;53.576;9.934;2022-07-21T09:19:23;27.77;;;22.63;;
4317;SDS011;2172;53.576;9.934;2022-07-21T09:21:52;23.77;;;21.37;;
4317;SDS011;2172;53.576;9.934;2022-07-21T09:24:22;25.40;;;22.70;;
4317;SDS011;2172;53.576;9.934;2022-07-21T09:27:01;26.47;;;21.23;;
4317;SDS011;2172;53.576;9.934;2022-07-21T09:29:34;25.10;;;21.03;;
4317;SDS011;2172;53.576;9.934;2022-07-21T09:32:15;25.60;;;21.60;;
4317;SDS011;2172;53.576;9.934;2022-07-21T09:34:46;25.33;;;21.83;;
4317;SDS011;2172;53.576;9.934;2022-07-21T09:37:14;25.17;;;22.50;;
4317;SDS011;2172;53.576;9.934;2022-07-21T09:39:43;26.03;;;21.50;;
4317;SDS011;2172;53.576;9.934;2022-07-21T09:42:12;24.70;;;21.60;;
4317;SDS011;2172;53.576;9.934;2022-07-21T09:44:41;26.20;;;22.13;;
4317;SDS011;2172;53.576;9.934;2022-07-21T09:47:11;28.13;;;23.57;;
4317;SDS011;2172;53.576;9.934;2022-07-21T09:49:41;25.13;;;21.30;;
4317;SDS011;2172;53.576;9.934;2022-07-21T09:52:19;30.00;;;23.70;;
4317;SDS011;2172;53.576;9.934;2022-07-21T09:54:48;26.10;;;21.73;;
4317;SDS011;2172;53.576;9.934;2022-07-21T09:57:16;22.30;;;18.70;;
4317;SDS011;2172;53.576;9.934;2022-07-21T09:59:44;23.97;;;21.23;;
4317;SDS011;2172;53.576;9.934;2022-07-21T10:02:18;24.00;;;21.30;;
4317;SDS011;2172;53.576;9.934;2022-07-21T10:04:48;27.27;;;23.10;;
4317;SDS011;2172;53.576;9.934;2022-07-21T10:07:21;24.70;;;20.90;;
4317;SDS011;2172;53.576;9.934;2022-07-21T10:09:49;22.37;;;20.07;;
4317;SDS011;2172;53.576;9.934;2022-07-21T10:12:16;22.70;;;20.40;;
4317;SDS011;2172;53.576;9.934;2022-07-21T10:14:44;22.70;;;20.30;;
4317;SDS011;2172;53.576;9.934;2022-07-21T10:17:13;21.43;;;19.30;;
4317;SDS011;2172;53.576;9.934;2022-07-21T10:19:56;21.97;;;18.63;;
4317;SDS011;2172;53.576;9.934;2022-07-21T10:22:34;18.73;;;16.80;;
4317;SDS011;2172;53.576;9.934;2022-07-21T10:25:07;19.80;;;17.70;;
4317;SDS011;2172;53.576;9.934;2022-07-21T10:27:34;18.00;;;16.20;;
4317;SDS011;2172;53.576;9.934;2022-07-21T10:30:03;18.80;;;16.60;;
4317;SDS011;2172;53.576;9.934;2022-07-21T10:32:33;20.07;;;16.57;;
4317;SDS011;2172;53.576;9.934;2022-07-21T10:37:51;20.20;;;18.17;;
4317;SDS011;2172;53.576;9.934;2022-07-21T10:40:37;19.33;;;17.40;;
4317;SDS011;2172;53.576;9.934;2022-07-21T10:46:02;19.30;;;17.47;;
4317;SDS011;2172;53.576;9.934;2022-07-21T10:48:47;19.43;;;17.73;;
4317;SDS011;2172;53.576;9.934;2022-07-21T10:51:16;18.57;;;16.87;;
4317;SDS011;2172;53.576;9.934;2022-07-21T10:53:44;19.43;;;15.90;;
4317;SDS011;2172;53.576;9.934;2022-07-21T10:56:25;15.07;;;13.57;;
4317;SDS011;2172;53.576;9.934;2022-07-21T10:58:56;15.87;;;14.37;;
4317;SDS011;2172;53.576;9.934;2022-07-21T11:01:24;15.87;;;14.37;;
4317;SDS011;2172;53.576;9.934;2022-07-21T11:04:05;16.33;;;14.77;;
4317;SDS011;2172;53.576;9.934;2022-07-21T11:06:36;12.17;;;11.10;;
4317;SDS011;2172;53.576;9.934;2022-07-21T11:09:07;16.63;;;15.00;;
4317;SDS011;2172;53.576;9.934;2022-07-21T11:11:39;12.50;;;11.47;;
4317;SDS011;2172;53.576;9.934;2022-07-21T11:14:34;12.23;;;11.10;;
4317;SDS011;2172;53.576;9.934;2022-07-21T11:17:02;11.57;;;10.57;;
4317;SDS011;2172;53.576;9.934;2022-07-21T11:19:31;14.47;;;13.00;;
4317;SDS011;2172;53.576;9.934;2022-07-21T11:22:03;15.73;;;14.07;;
4317;SDS011;2172;53.576;9.934;2022-07-21T11:24:32;12.17;;;11.10;;
4317;SDS011;2172;53.576;9.934;2022-07-21T11:27:00;12.90;;;11.60;;
4317;SDS011;2172;53.576;9.934;2022-07-21T11:29:29;12.00;;;10.90;;
4317;SDS011;2172;53.576;9.934;2022-07-21T11:31:57;12.77;;;10.40;;
4317;SDS011;2172;53.576;9.934;2022-07-21T11:34:37;11.90;;;10.90;;
4317;SDS011;2172;53.576;9.934;2022-07-21T11:37:10;12.30;;;11.20;;
4317;SDS011;2172;53.576;9.934;2022-07-21T11:39:38;12.57;;;11.30;;
4317;SDS011;2172;53.576;9.934;2022-07-21T11:42:06;11.67;;;10.77;;
4317;SDS011;2172;53.576;9.934;2022-07-21T11:44:35;11.27;;;10.30;;
4317;SDS011;2172;53.576;9.934;2022-07-21T11:47:03;10.07;;;9.17;;
4317;SDS011;2172;53.576;9.934;2022-07-21T11:49:32;9.57;;;8.67;;
4317;SDS011;2172;53.576;9.934;2022-07-21T11:52:00;9.33;;;8.53;;
4317;SDS011;2172;53.576;9.934;2022-07-21T11:54:31;8.80;;;8.07;;
4317;SDS011;2172;53.576;9.934;2022-07-21T11:57:01;10.10;;;9.20;;
4317;SDS011;2172;53.576;9.934;2022-07-21T11:59:29;10.87;;;9.80;;
4317;SDS011;2172;53.576;9.934;2022-07-21T12:02:01;10.10;;;9.10;;
4317;SDS011;2172;53.576;9.934;2022-07-21T12:04:35;9.20;;;8.50;;
4317;SDS011;2172;53.576;9.934;2022-07-21T12:07:10;9.47;;;8.77;;
4317;SDS011;2172;53.576;9.934;2022-07-21T12:09:42;9.93;;;8.93;;
4317;SDS011;2172;53.576;9.934;2022-07-21T12:12:11;10.00;;;9.00;;
4317;SDS011;2172;53.576;9.934;2022-07-21T12:14:39;10.13;;;9.33;;
4317;SDS011;2172;53.576;9.934;2022-07-21T12:17:11;9.33;;;8.53;;
4317;SDS011;2172;53.576;9.934;2022-07-21T12:19:39;9.77;;;8.97;;
4317;SDS011;2172;53.576;9.934;2022-07-21T12:22:07;10.67;;;9.77;;
4317;SDS011;2172;53.576;9.934;2022-07-21T12:24:49;11.07;;;10.00;;
4317;SDS011;2172;53.576;9.934;2022-07-21T12:27:18;10.63;;;9.73;;
4317;SDS011;2172;53.576;9.934;2022-07-21T12:29:46;11.03;;;9.93;;
4317;SDS011;2172;53.576;9.934;2022-07-21T12:32:14;9.87;;;8.97;;
4317;SDS011;2172;53.576;9.934;2022-07-21T12:35:02;9.53;;;8.83;;
4317;SDS011;2172;53.576;9.934;2022-07-21T12:40:20;9.77;;;8.87;;
4317;SDS011;2172;53.576;9.934;2022-07-21T12:42:48;10.63;;;9.67;;
4317;SDS011;2172;53.576;9.934;2022-07-21T12:45:17;9.40;;;8.50;;
4317;SDS011;2172;53.576;9.934;2022-07-21T12:50:34;10.00;;;9.00;;
4317;SDS011;2172;53.576;9.934;2022-07-21T12:53:04;11.00;;;10.10;;
4317;SDS011;2172;53.576;9.934;2022-07-21T12:55:33;10.23;;;9.33;;
4317;SDS011;2172;53.576;9.934;2022-07-21T12:58:00;10.10;;;9.20;;
4317;SDS011;2172;53.576;9.934;2022-07-21T13:00:28;9.50;;;8.57;;
4317;SDS011;2172;53.576;9.934;2022-07-21T13:02:56;7.83;;;7.23;;
4317;SDS011;2172;53.576;9.934;2022-07-21T13:05:24;8.17;;;6.90;;
4317;SDS011;2172;53.576;9.934;2022-07-21T13:07:52;7.47;;;6.87;;
4317;SDS011;2172;53.576;9.934;2022-07-21T13:10:20;7.80;;;7.20;;
4317;SDS011;2172;53.576;9.934;2022-07-21T13:12:49;8.63;;;7.93;;
4317;SDS011;2172;53.576;9.934;2022-07-21T13:15:16;8.40;;;7.70;;
4317;SDS011;2172;53.576;9.934;2022-07-21T13:17:44;8.53;;;7.77;;
4317;SDS011;2172;53.576;9.934;2022-07-21T13:20:11;8.63;;;7.70;;
4317;SDS011;2172;53.576;9.934;2022-07-21T13:22:39;10.33;;;9.43;;
4317;SDS011;2172;53.576;9.934;2022-07-21T13:25:07;8.30;;;7.47;;
4317;SDS011;2172;53.576;9.934;2022-07-21T13:27:35;8.50;;;7.80;;
4317;SDS011;2172;53.576;9.934;2022-07-21T13:30:05;10.17;;;9.30;;
4317;SDS011;2172;53.576;9.934;2022-07-21T13:32:34;10.43;;;8.43;;
4317;SDS011;2172;53.576;9.934;2022-07-21T13:35:02;8.67;;;7.90;;
4317;SDS011;2172;53.576;9.934;2022-07-21T13:37:30;9.50;;;8.60;;
4317;SDS011;2172;53.576;9.934;2022-07-21T13:39:58;11.60;;;8.53;;
4317;SDS011;2172;53.576;9.934;2022-07-21T13:42:25;12.57;;;10.43;;
4317;SDS011;2172;53.576;9.934;2022-07-21T13:44:53;8.97;;;8.17;;
4317;SDS011;2172;53.576;9.934;2022-07-21T13:47:22;13.10;;;11.70;;
4317;SDS011;2172;53.576;9.934;2022-07-21T13:49:49;7.70;;;7.10;;
4317;SDS011;2172;53.576;9.934;2022-07-21T13:52:18;9.23;;;8.50;;
4317;SDS011;2172;53.576;9.934;2022-07-21T13:54:45;8.00;;;7.30;;
4317;SDS011;2172;53.576;9.934;2022-07-21T13:57:13;7.20;;;6.60;;
4317;SDS011;2172;53.576;9.934;2022-07-21T13:59:41;6.83;;;6.23;;
4317;SDS011;2172;53.576;9.934;2022-07-21T14:02:09;5.63;;;5.13;;
4317;SDS011;2172;53.576;9.934;2022-07-21T14:04:38;6.00;;;5.43;;
4317;SDS011;2172;53.576;9.934;2022-07-21T14:07:06;5.70;;;5.10;;
4317;SDS011;2172;53.576;9.934;2022-07-21T14:09:33;6.23;;;5.73;;
4317;SDS011;2172;53.576;9.934;2022-07-21T14:12:02;5.93;;;5.43;;
4317;SDS011;2172;53.576;9.934;2022-07-21T14:14:29;5.93;;;5.50;;
4317;SDS011;2172;53.576;9.934;2022-07-21T14:16:58;5.63;;;5.23;;
4317;SDS011;2172;53.576;9.934;2022-07-21T14:19:25;5.90;;;5.00;;
4317;SDS011;2172;53.576;9.934;2022-07-21T14:21:54;5.40;;;4.90;;
4317;SDS011;2172;53.576;9.934;2022-07-21T14:24:22;5.20;;;4.80;;
4317;SDS011;2172;53.576;9.934;2022-07-21T14:27:07;6.43;;;5.03;;
4317;SDS011;2172;53.576;9.934;2022-07-21T14:29:35;6.07;;;5.40;;
4317;SDS011;2172;53.576;9.934;2022-07-21T14:32:03;5.30;;;4.90;;
4317;SDS011;2172;53.576;9.934;2022-07-21T14:34:31;6.53;;;5.67;;
4317;SDS011;2172;53.576;9.934;2022-07-21T14:37:00;5.60;;;5.20;;
4317;SDS011;2172;53.576;9.934;2022-07-21T14:39:28;5.63;;;5.17;;
4317;SDS011;2172;53.576;9.934;2022-07-21T14:41:56;5.30;;;4.90;;
4317;SDS011;2172;53.576;9.934;2022-07-21T14:44:23;5.90;;;5.33;;
4317;SDS011;2172;53.576;9.934;2022-07-21T14:46:51;5.27;;;4.87;;
4317;SDS011;2172;53.576;9.934;2022-07-21T14:49:18;5.33;;;4.90;;
4317;SDS011;2172;53.576;9.934;2022-07-21T14:51:46;5.50;;;5.10;;
4317;SDS011;2172;53.576;9.934;2022-07-21T14:54:15;6.30;;;5.70;;
4317;SDS011;2172;53.576;9.934;2022-07-21T14:56:43;6.43;;;5.83;;
4317;SDS011;2172;53.576;9.934;2022-07-21T14:59:10;6.80;;;6.20;;
4317;SDS011;2172;53.576;9.934;2022-07-21T15:01:38;6.60;;;6.10;;
4317;SDS011;2172;53.576;9.934;2022-07-21T15:04:06;7.00;;;6.40;;
4317;SDS011;2172;53.576;9.934;2022-07-21T15:06:33;6.30;;;5.80;;
4317;SDS011;2172;53.576;9.934;2022-07-21T15:09:00;6.80;;;6.30;;
4317;SDS011;2172;53.576;9.934;2022-07-21T15:11:30;6.30;;;5.70;;
4317;SDS011;2172;53.576;9.934;2022-07-21T15:13:57;7.33;;;6.73;;